Terminal Aerodrome Forecast
Issued by NWS Upton, NY

Home | Current Version | Previous Version | Text Only | Print | Product List | Glossary On
Versions: 1 2 3 4 5 6 7 8 9 10 11 12 13 14 15 16 17 18 19 20 21 22 23 24 25 26 27 28
000
FTUS41 KOKX 250500
TAFJFK
TAF
KJFK 250531Z 2506/2612 17014G20KT 1/2SM -RA FG VV002 WS020/20055KT
      TEMPO 2506/2507 1/4SM FG VV001
     FM250800 21018G28KT 1SM +RA BR BKN003 WS020/22060KT
     FM251000 26016G26KT P6SM SCT020 BKN080
     FM251400 28020G34KT P6SM SCT080 BKN250
     FM252200 28016G28KT P6SM SKC
     FM260200 28012KT P6SM SKC=

USA.gov is the U.S. government's official web portal to all federal, state and local government web resources and services.